Time;durP1;ratioP1;P1;durP2;ratioP2;P2;SDS_P1;SDS_P2;PMS_P1;PMS_P2;Temp;Humidity;BMP_temperature;BMP_pressure;BME280_temperature;BME280_humidity;BME280_pressure;Samples;Min_cycle;Max_cycle;Signal;HPM_P1;HPM_P2
2021/09/22 00:01:16;;;;;;;30.27;21.63;;;;;;;;;;5033631;28;20656;-76
2021/09/22 00:03:41;;;;;;;34.38;22.85;;;;;;;;;;5019461;28;20623;-75
2021/09/22 00:06:07;;;;;;;33.30;23.13;;;;;;;;;;5029391;28;20228;-76
2021/09/22 00:08:33;;;;;;;32.65;22.67;;;;;;;;;;5023935;28;20215;-75
2021/09/22 00:10:59;;;;;;;34.53;22.80;;;;;;;;;;5028824;28;21671;-75
2021/09/22 00:13:25;;;;;;;33.20;23.10;;;;;;;;;;5020582;28;22296;-75
2021/09/22 00:15:50;;;;;;;35.30;23.58;;;;;;;;;;5029340;28;20194;-75
2021/09/22 00:18:16;;;;;;;34.47;22.75;;;;;;;;;;5029593;28;20228;-75
2021/09/22 00:20:41;;;;;;;33.78;22.95;;;;;;;;;;5023358;28;20185;-75
2021/09/22 00:23:07;;;;;;;31.98;22.15;;;;;;;;;;5031989;28;20614;-75
2021/09/22 00:25:33;;;;;;;30.58;22.33;;;;;;;;;;5021581;28;20556;-75
2021/09/22 00:28:02;;;;;;;32.10;23.40;;;;;;;;;;5028462;28;20194;-75
2021/09/22 00:30:27;;;;;;;31.63;22.05;;;;;;;;;;5020345;28;20193;-75
2021/09/22 00:32:53;;;;;;;35.60;23.92;;;;;;;;;;5027791;28;20192;-75
2021/09/22 00:35:19;;;;;;;35.10;23.70;;;;;;;;;;5017518;28;20228;-76
2021/09/22 00:37:44;;;;;;;32.58;22.65;;;;;;;;;;5026282;28;20271;-75
2021/09/22 00:40:11;;;;;;;33.85;22.40;;;;;;;;;;5019011;28;20224;-75
2021/09/22 00:42:37;;;;;;;38.95;24.05;;;;;;;;;;5029831;28;20216;-75
2021/09/22 00:45:09;;;;;;;34.85;24.13;;;;;;;;;;5022539;28;20206;-75
2021/09/22 00:47:34;;;;;;;34.25;24.02;;;;;;;;;;5026893;28;20189;-75
2021/09/22 00:49:59;;;;;;;42.60;26.15;;;;;;;;;;5031316;28;20192;-74
2021/09/22 00:52:25;;;;;;;36.50;25.15;;;;;;;;;;5018258;28;20230;-76
2021/09/22 00:54:51;;;;;;;36.42;25.35;;;;;;;;;;5030372;28;20201;-76
2021/09/22 00:57:18;;;;;;;40.65;26.17;;;;;;;;;;5018922;28;20580;-76
2021/09/22 00:59:44;;;;;;;40.15;25.52;;;;;;;;;;5028817;28;20182;-76
2021/09/22 01:02:10;;;;;;;39.97;25.45;;;;;;;;;;5022006;28;20193;-76
2021/09/22 01:04:37;;;;;;;37.72;24.33;;;;;;;;;;5028492;28;20579;-76
2021/09/22 01:07:07;;;;;;;36.53;25.60;;;;;;;;;;5020794;28;20602;-76
2021/09/22 01:09:32;;;;;;;38.58;26.10;;;;;;;;;;5029608;28;20200;-76
2021/09/22 01:11:58;;;;;;;34.72;23.73;;;;;;;;;;5019459;28;20626;-76
2021/09/22 01:14:25;;;;;;;37.60;24.30;;;;;;;;;;5032732;28;20703;-75
2021/09/22 01:16:51;;;;;;;39.78;24.95;;;;;;;;;;5019894;28;20206;-75
2021/09/22 01:19:19;;;;;;;33.78;23.75;;;;;;;;;;5027550;28;20182;-75
2021/09/22 01:21:46;;;;;;;34.97;22.80;;;;;;;;;;5029656;28;20259;-76
2021/09/22 01:24:12;;;;;;;36.50;25.25;;;;;;;;;;5022486;28;20633;-75
2021/09/22 01:26:37;;;;;;;34.22;23.35;;;;;;;;;;5027546;28;20185;-74
2021/09/22 01:29:03;;;;;;;37.60;24.15;;;;;;;;;;5019898;28;20185;-75
2021/09/22 01:31:28;;;;;;;37.38;24.48;;;;;;;;;;5028620;28;20200;-75
2021/09/22 01:33:54;;;;;;;34.67;23.88;;;;;;;;;;5019797;28;20189;-74
2021/09/22 01:36:19;;;;;;;32.85;23.08;;;;;;;;;;5025909;28;20211;-76
2021/09/22 01:38:45;;;;;;;36.45;24.40;;;;;;;;;;5034962;28;20181;-76
2021/09/22 01:41:12;;;;;;;35.90;23.85;;;;;;;;;;5025706;28;20209;-76
2021/09/22 01:43:39;;;;;;;40.05;26.33;;;;;;;;;;5009554;28;20197;-76
2021/09/22 01:46:07;;;;;;;38.90;25.85;;;;;;;;;;5030879;28;20181;-76
2021/09/22 01:48:33;;;;;;;41.00;26.23;;;;;;;;;;5019152;28;20243;-76
2021/09/22 01:51:00;;;;;;;40.95;27.27;;;;;;;;;;5029802;28;20189;-76
2021/09/22 01:53:27;;;;;;;40.75;27.27;;;;;;;;;;5025994;28;20197;-76
2021/09/22 01:55:53;;;;;;;46.22;27.17;;;;;;;;;;5021778;28;20212;-76
2021/09/22 01:58:19;;;;;;;41.42;26.45;;;;;;;;;;5025772;28;20638;-74
2021/09/22 02:00:45;;;;;;;40.63;27.88;;;;;;;;;;5019719;28;20277;-75
2021/09/22 02:03:11;;;;;;;39.75;26.38;;;;;;;;;;5026502;28;20330;-75
2021/09/22 02:05:37;;;;;;;40.13;26.45;;;;;;;;;;5019977;28;20181;-75
2021/09/22 02:08:02;;;;;;;42.10;25.90;;;;;;;;;;5027513;28;20189;-75
2021/09/22 02:10:28;;;;;;;43.22;27.83;;;;;;;;;;5018511;28;20937;-75
2021/09/22 02:12:53;;;;;;;44.85;27.15;;;;;;;;;;5026531;28;20197;-75
2021/09/22 02:15:19;;;;;;;43.30;27.23;;;;;;;;;;5020410;28;20247;-75
2021/09/22 02:17:44;;;;;;;41.45;27.15;;;;;;;;;;5026144;28;20197;-75
2021/09/22 02:20:11;;;;;;;41.90;26.90;;;;;;;;;;5017499;28;20984;-75
2021/09/22 02:22:36;;;;;;;43.55;28.50;;;;;;;;;;5025854;28;20657;-75
2021/09/22 02:25:04;;;;;;;46.08;27.25;;;;;;;;;;5027976;28;20186;-75
2021/09/22 02:27:29;;;;;;;40.60;25.83;;;;;;;;;;5018335;28;20255;-74
2021/09/22 02:29:55;;;;;;;38.22;25.02;;;;;;;;;;5027246;28;20650;-75
2021/09/22 02:32:20;;;;;;;35.92;24.05;;;;;;;;;;5018607;28;20193;-76
2021/09/22 02:34:46;;;;;;;41.58;25.05;;;;;;;;;;5027610;28;20681;-75
2021/09/22 02:37:11;;;;;;;39.38;25.90;;;;;;;;;;5018172;28;20265;-75
2021/09/22 02:39:37;;;;;;;38.90;24.65;;;;;;;;;;5027863;28;20678;-75
2021/09/22 02:42:03;;;;;;;42.13;26.58;;;;;;;;;;5017041;28;20197;-75
2021/09/22 02:44:28;;;;;;;39.90;24.65;;;;;;;;;;5026333;28;20252;-76
2021/09/22 02:46:54;;;;;;;39.13;25.80;;;;;;;;;;5022890;28;20210;-75
2021/09/22 02:49:20;;;;;;;44.97;25.60;;;;;;;;;;5028985;28;20198;-75
2021/09/22 02:51:45;;;;;;;37.10;24.23;;;;;;;;;;5023413;28;20193;-75
2021/09/22 02:54:11;;;;;;;41.58;25.85;;;;;;;;;;5029982;28;20186;-75
2021/09/22 02:56:36;;;;;;;37.42;24.17;;;;;;;;;;5030454;28;20219;-75
2021/09/22 02:59:02;;;;;;;41.80;26.33;;;;;;;;;;5024010;28;20568;-75
2021/09/22 03:01:27;;;;;;;42.03;25.73;;;;;;;;;;5030694;28;20665;-76
2021/09/22 03:03:53;;;;;;;43.78;26.45;;;;;;;;;;5022556;28;20605;-76
2021/09/22 03:06:18;;;;;;;42.35;26.63;;;;;;;;;;5029036;28;20264;-76
2021/09/22 03:08:43;;;;;;;41.90;26.85;;;;;;;;;;5021843;28;20193;-76
2021/09/22 03:11:09;;;;;;;52.37;29.77;;;;;;;;;;5028982;28;20268;-75
2021/09/22 03:13:36;;;;;;;47.85;29.30;;;;;;;;;;5023740;28;20724;-76
2021/09/22 03:16:01;;;;;;;46.20;28.13;;;;;;;;;;5028838;28;20608;-75
2021/09/22 03:18:27;;;;;;;39.60;26.13;;;;;;;;;;5022787;28;20194;-77
2021/09/22 03:20:52;;;;;;;45.90;28.20;;;;;;;;;;5029114;28;21227;-75
2021/09/22 03:23:18;;;;;;;46.92;29.02;;;;;;;;;;5023511;28;20323;-75
2021/09/22 03:25:43;;;;;;;42.45;27.13;;;;;;;;;;5030751;28;20193;-75
2021/09/22 03:28:08;;;;;;;45.80;29.40;;;;;;;;;;5027912;28;20894;-76
2021/09/22 03:30:34;;;;;;;48.45;29.17;;;;;;;;;;5024112;28;20624;-76
2021/09/22 03:32:59;;;;;;;49.60;30.65;;;;;;;;;;5029857;28;20553;-74
2021/09/22 03:35:25;;;;;;;54.35;30.75;;;;;;;;;;5022694;28;20228;-75
2021/09/22 03:37:50;;;;;;;48.93;29.80;;;;;;;;;;5027824;28;20185;-75
2021/09/22 03:40:15;;;;;;;46.33;29.93;;;;;;;;;;5022763;28;20198;-75
2021/09/22 03:42:41;;;;;;;50.27;31.73;;;;;;;;;;5027877;28;20185;-75
2021/09/22 03:45:07;;;;;;;47.57;29.67;;;;;;;;;;5021665;28;20652;-76
2021/09/22 03:47:32;;;;;;;49.10;30.87;;;;;;;;;;5033407;28;20182;-76
2021/09/22 03:49:58;;;;;;;51.53;31.20;;;;;;;;;;5021159;28;21196;-76
2021/09/22 03:52:23;;;;;;;45.30;29.35;;;;;;;;;;5030046;28;21395;-76
2021/09/22 03:54:49;;;;;;;49.53;30.48;;;;;;;;;;5025019;28;20653;-76
2021/09/22 03:57:15;;;;;;;48.80;30.35;;;;;;;;;;5023455;28;20727;-75
2021/09/22 03:59:40;;;;;;;47.67;28.67;;;;;;;;;;5029453;28;20539;-76
2021/09/22 04:02:06;;;;;;;48.42;29.35;;;;;;;;;;5020709;28;20182;-75
2021/09/22 04:04:31;;;;;;;53.75;30.88;;;;;;;;;;5026567;28;20296;-76
2021/09/22 04:06:57;;;;;;;49.20;30.98;;;;;;;;;;5021907;28;20182;-75
2021/09/22 04:09:22;;;;;;;48.38;30.80;;;;;;;;;;5026176;28;20252;-75
2021/09/22 04:11:47;;;;;;;47.38;28.60;;;;;;;;;;5018968;28;20185;-75
2021/09/22 04:14:13;;;;;;;54.85;30.88;;;;;;;;;;5027962;28;20598;-75
2021/09/22 04:16:38;;;;;;;52.58;32.45;;;;;;;;;;5020690;28;20246;-75
2021/09/22 04:19:03;;;;;;;52.90;32.30;;;;;;;;;;5028613;28;20283;-76
2021/09/22 04:21:29;;;;;;;55.78;33.33;;;;;;;;;;5019944;28;20232;-76
2021/09/22 04:23:54;;;;;;;54.08;32.95;;;;;;;;;;5028024;28;20559;-76
2021/09/22 04:26:19;;;;;;;53.25;32.22;;;;;;;;;;5026854;28;20220;-76
2021/09/22 04:28:45;;;;;;;52.60;32.03;;;;;;;;;;5020189;28;20186;-76
2021/09/22 04:31:10;;;;;;;51.30;32.65;;;;;;;;;;5024478;28;20189;-76
2021/09/22 04:33:36;;;;;;;47.83;29.50;;;;;;;;;;5018961;28;20193;-76
2021/09/22 04:36:01;;;;;;;50.03;30.63;;;;;;;;;;5028423;28;20304;-76
2021/09/22 04:38:26;;;;;;;53.20;32.88;;;;;;;;;;5018539;28;20201;-75
2021/09/22 04:40:52;;;;;;;50.43;31.50;;;;;;;;;;5029058;28;20182;-75
2021/09/22 04:43:17;;;;;;;51.58;32.78;;;;;;;;;;5021018;28;20208;-76
2021/09/22 04:45:45;;;;;;;55.35;33.67;;;;;;;;;;5028242;28;20236;-76
2021/09/22 04:48:11;;;;;;;51.45;31.08;;;;;;;;;;5018062;28;20292;-75
2021/09/22 04:50:37;;;;;;;54.03;33.20;;;;;;;;;;5028607;28;21262;-75
2021/09/22 04:53:02;;;;;;;56.63;32.85;;;;;;;;;;5019815;28;20218;-75
2021/09/22 04:55:28;;;;;;;59.10;33.55;;;;;;;;;;5026626;28;20501;-76
2021/09/22 04:57:53;;;;;;;59.08;33.08;;;;;;;;;;5025460;28;20198;-76
2021/09/22 05:00:18;;;;;;;57.65;34.45;;;;;;;;;;5016636;28;20697;-76
2021/09/22 05:02:44;;;;;;;58.45;35.70;;;;;;;;;;5025508;28;20242;-76
2021/09/22 05:05:09;;;;;;;58.33;35.17;;;;;;;;;;5020022;28;20281;-76
2021/09/22 05:07:35;;;;;;;58.20;35.00;;;;;;;;;;5026617;28;20660;-75
2021/09/22 05:10:00;;;;;;;69.93;40.13;;;;;;;;;;5019568;28;20247;-76
2021/09/22 05:12:25;;;;;;;73.10;41.37;;;;;;;;;;5028951;28;20197;-76
2021/09/22 05:14:51;;;;;;;67.70;39.27;;;;;;;;;;5019570;28;20235;-76
2021/09/22 05:17:16;;;;;;;63.73;38.50;;;;;;;;;;5025961;28;20197;-76
2021/09/22 05:19:41;;;;;;;66.43;39.73;;;;;;;;;;5016807;28;20193;-76
2021/09/22 05:22:07;;;;;;;72.90;41.00;;;;;;;;;;5029514;28;20189;-76
2021/09/22 05:24:32;;;;;;;67.27;39.70;;;;;;;;;;5016302;28;20202;-76
2021/09/22 05:26:58;;;;;;;72.63;40.07;;;;;;;;;;5027046;28;20178;-76
2021/09/22 05:29:23;;;;;;;76.70;41.07;;;;;;;;;;5022392;28;20205;-76
2021/09/22 05:31:49;;;;;;;66.68;39.03;;;;;;;;;;5022153;28;20201;-77
2021/09/22 05:34:14;;;;;;;72.63;40.53;;;;;;;;;;5024177;28;20201;-76
2021/09/22 05:36:39;;;;;;;75.90;40.60;;;;;;;;;;5018560;28;20217;-76
2021/09/22 05:39:05;;;;;;;74.22;39.28;;;;;;;;;;5027278;28;20200;-77
2021/09/22 05:41:31;;;;;;;65.95;38.97;;;;;;;;;;5016118;28;20255;-77
2021/09/22 05:43:57;;;;;;;76.90;40.22;;;;;;;;;;5023540;28;20261;-75
2021/09/22 05:46:22;;;;;;;67.63;39.55;;;;;;;;;;5020805;28;20982;-75
2021/09/22 05:48:48;;;;;;;66.40;37.25;;;;;;;;;;5024707;28;20194;-75
2021/09/22 05:51:14;;;;;;;79.78;41.13;;;;;;;;;;5016900;28;20197;-77
2021/09/22 05:53:42;;;;;;;80.17;42.57;;;;;;;;;;5027265;28;20220;-76
2021/09/22 05:56:08;;;;;;;89.53;46.33;;;;;;;;;;5017871;28;20227;-76
2021/09/22 05:58:33;;;;;;;88.88;45.85;;;;;;;;;;5027850;28;20624;-76
2021/09/22 06:00:59;;;;;;;70.32;37.13;;;;;;;;;;5025889;28;20627;-76
2021/09/22 06:03:24;;;;;;;80.30;43.92;;;;;;;;;;5016305;28;20237;-75
2021/09/22 06:05:50;;;;;;;82.85;43.38;;;;;;;;;;5028873;28;20306;-75
2021/09/22 06:08:15;;;;;;;80.85;42.45;;;;;;;;;;5020338;28;20633;-75
2021/09/22 06:10:40;;;;;;;86.22;44.88;;;;;;;;;;5026249;28;20186;-76
2021/09/22 06:13:06;;;;;;;91.30;46.80;;;;;;;;;;5018187;28;20644;-75
2021/09/22 06:15:31;;;;;;;83.20;44.72;;;;;;;;;;5027752;28;20560;-75
2021/09/22 06:17:57;;;;;;;92.18;45.65;;;;;;;;;;5019794;28;20198;-75
2021/09/22 06:20:23;;;;;;;76.72;41.58;;;;;;;;;;5024920;28;20185;-75
2021/09/22 06:22:48;;;;;;;86.72;43.80;;;;;;;;;;5018479;28;20871;-75
2021/09/22 06:25:16;;;;;;;94.65;45.35;;;;;;;;;;5027183;28;20178;-74
2021/09/22 06:27:41;;;;;;;90.05;45.38;;;;;;;;;;5021855;28;20169;-75
2021/09/22 06:30:07;;;;;;;84.15;43.15;;;;;;;;;;5026340;28;20197;-74
2021/09/22 06:32:32;;;;;;;90.50;45.53;;;;;;;;;;5029602;28;20178;-74
2021/09/22 06:34:58;;;;;;;91.97;45.58;;;;;;;;;;5021294;28;20217;-75
2021/09/22 06:37:23;;;;;;;91.97;47.20;;;;;;;;;;5029585;28;20186;-75
2021/09/22 06:39:49;;;;;;;95.50;49.42;;;;;;;;;;5019978;28;20566;-75
2021/09/22 06:42:14;;;;;;;87.75;46.83;;;;;;;;;;5031169;28;20182;-74
2021/09/22 06:44:39;;;;;;;95.72;49.75;;;;;;;;;;5022372;28;20297;-74
2021/09/22 06:47:05;;;;;;;93.75;49.58;;;;;;;;;;5032670;28;20180;-74
2021/09/22 06:49:30;;;;;;;88.57;47.15;;;;;;;;;;5019691;28;20197;-74
2021/09/22 06:51:56;;;;;;;92.95;49.70;;;;;;;;;;5026932;28;20216;-74
2021/09/22 06:54:22;;;;;;;95.82;51.58;;;;;;;;;;5021447;28;20198;-73
2021/09/22 06:56:47;;;;;;;97.78;50.78;;;;;;;;;;5027103;28;20201;-74
2021/09/22 06:59:13;;;;;;;103.88;52.70;;;;;;;;;;5026468;28;20633;-74
2021/09/22 07:01:40;;;;;;;101.30;54.03;;;;;;;;;;5021383;28;20564;-75
2021/09/22 07:04:06;;;;;;;91.57;49.88;;;;;;;;;;5026995;28;20234;-74
2021/09/22 07:06:31;;;;;;;97.88;51.25;;;;;;;;;;5022055;28;20296;-74
2021/09/22 07:08:57;;;;;;;90.22;49.97;;;;;;;;;;5028692;28;20245;-74
2021/09/22 07:11:22;;;;;;;99.68;53.10;;;;;;;;;;5017925;28;20217;-74
2021/09/22 07:13:47;;;;;;;95.05;52.80;;;;;;;;;;5028871;28;20269;-73
2021/09/22 07:16:16;;;;;;;91.45;51.70;;;;;;;;;;5018453;28;20561;-72
2021/09/22 07:18:42;;;;;;;97.65;53.85;;;;;;;;;;5028302;28;20185;-73
2021/09/22 07:21:07;;;;;;;97.22;54.10;;;;;;;;;;5018549;28;20210;-73
2021/09/22 07:23:32;;;;;;;97.10;55.50;;;;;;;;;;5028323;28;20170;-73
2021/09/22 07:25:58;;;;;;;99.90;53.92;;;;;;;;;;5019739;28;20228;-73
2021/09/22 07:28:23;;;;;;;97.75;54.88;;;;;;;;;;5022242;28;20920;-72
2021/09/22 07:30:49;;;;;;;91.45;54.70;;;;;;;;;;5027770;28;20260;-74
2021/09/22 07:33:19;;;;;;;87.38;52.80;;;;;;;;;;5028016;28;20251;-73
2021/09/22 07:35:47;;;;;;;94.13;54.50;;;;;;;;;;5032987;28;20587;-73
2021/09/22 07:38:12;;;;;;;88.28;52.60;;;;;;;;;;5022881;28;20229;-73
2021/09/22 07:40:37;;;;;;;88.13;51.13;;;;;;;;;;5035593;28;20264;-74
2021/09/22 07:43:03;;;;;;;80.03;49.45;;;;;;;;;;5024362;28;20308;-74
2021/09/22 07:45:28;;;;;;;74.32;46.70;;;;;;;;;;5033301;28;20182;-73
2021/09/22 07:47:54;;;;;;;80.65;49.53;;;;;;;;;;5022053;28;20181;-74
2021/09/22 07:50:19;;;;;;;79.50;49.30;;;;;;;;;;5031153;28;20698;-74
2021/09/22 07:52:45;;;;;;;76.15;48.90;;;;;;;;;;5024399;28;20186;-74
2021/09/22 07:55:11;;;;;;;77.82;50.03;;;;;;;;;;5029012;28;20212;-75
2021/09/22 07:57:37;;;;;;;77.00;48.30;;;;;;;;;;5022735;28;20217;-74
2021/09/22 08:00:05;;;;;;;68.13;45.10;;;;;;;;;;5029555;28;20272;-74
2021/09/22 08:02:32;;;;;;;71.55;45.72;;;;;;;;;;5028495;28;20198;-74
2021/09/22 08:04:57;;;;;;;74.25;48.60;;;;;;;;;;5020607;28;20184;-74
2021/09/22 08:07:22;;;;;;;71.57;46.40;;;;;;;;;;5026190;28;20185;-74
2021/09/22 08:09:48;;;;;;;69.70;45.42;;;;;;;;;;5020126;28;20249;-74
2021/09/22 08:12:13;;;;;;;67.82;43.70;;;;;;;;;;5030804;28;20209;-73
2021/09/22 08:14:38;;;;;;;64.10;42.88;;;;;;;;;;5021720;28;20189;-72
2021/09/22 08:17:05;;;;;;;63.80;41.65;;;;;;;;;;5029898;28;20210;-73
2021/09/22 08:19:32;;;;;;;62.22;42.20;;;;;;;;;;5022414;28;20204;-73
2021/09/22 08:21:58;;;;;;;58.42;39.78;;;;;;;;;;5032520;28;21134;-72
2021/09/22 08:24:23;;;;;;;57.58;39.03;;;;;;;;;;5027564;28;20193;-72
2021/09/22 08:26:52;;;;;;;51.85;36.15;;;;;;;;;;5029958;28;20618;-73
2021/09/22 08:29:18;;;;;;;54.33;36.92;;;;;;;;;;5020704;28;20200;-75
2021/09/22 08:31:44;;;;;;;55.00;38.28;;;;;;;;;;5028031;28;20208;-74
2021/09/22 08:34:09;;;;;;;54.88;37.30;;;;;;;;;;5031330;28;20695;-73
2021/09/22 08:36:34;;;;;;;56.17;38.70;;;;;;;;;;5020896;28;20213;-72
2021/09/22 08:39:00;;;;;;;49.70;36.47;;;;;;;;;;5032817;28;20173;-73
2021/09/22 08:41:25;;;;;;;51.90;35.70;;;;;;;;;;5019698;28;20243;-74
2021/09/22 08:43:51;;;;;;;51.92;36.05;;;;;;;;;;5032942;28;20190;-73
2021/09/22 08:46:18;;;;;;;55.80;36.28;;;;;;;;;;5022172;28;20622;-72
2021/09/22 08:48:44;;;;;;;54.30;37.13;;;;;;;;;;5029656;28;20181;-71
2021/09/22 08:51:10;;;;;;;51.42;37.03;;;;;;;;;;5024294;28;20181;-72
2021/09/22 08:53:35;;;;;;;51.28;35.50;;;;;;;;;;5030390;28;20186;-71
2021/09/22 08:56:02;;;;;;;50.28;35.38;;;;;;;;;;5021972;28;20209;-71
2021/09/22 08:58:28;;;;;;;50.20;35.13;;;;;;;;;;5032863;28;20227;-73
2021/09/22 09:00:53;;;;;;;50.15;35.22;;;;;;;;;;5021835;28;20192;-73
2021/09/22 09:03:30;;;;;;;47.90;32.97;;;;;;;;;;5028901;28;20238;-71
2021/09/22 09:06:15;;;;;;;47.75;33.85;;;;;;;;;;5026248;28;20542;-73
2021/09/22 09:08:40;;;;;;;45.40;32.17;;;;;;;;;;5029189;28;20186;-72
2021/09/22 09:11:05;;;;;;;44.95;31.73;;;;;;;;;;5029491;28;20549;-72
2021/09/22 09:13:44;;;;;;;45.78;31.58;;;;;;;;;;5023187;28;20535;-72
2021/09/22 09:16:16;;;;;;;42.38;31.50;;;;;;;;;;5029577;28;20198;-72
2021/09/22 09:18:47;;;;;;;47.22;31.92;;;;;;;;;;5023614;28;20268;-73
2021/09/22 09:21:13;;;;;;;39.95;28.58;;;;;;;;;;5032653;28;20307;-72
2021/09/22 09:23:54;;;;;;;38.67;29.13;;;;;;;;;;5021077;28;20279;-73
2021/09/22 09:26:25;;;;;;;36.25;26.70;;;;;;;;;;5026268;28;20162;-72
2021/09/22 09:28:54;;;;;;;38.13;27.83;;;;;;;;;;5021658;28;20569;-73
2021/09/22 09:31:20;;;;;;;38.97;28.38;;;;;;;;;;5032307;28;20598;-73
2021/09/22 09:33:52;;;;;;;34.47;26.77;;;;;;;;;;5021936;28;20186;-73
2021/09/22 09:36:29;;;;;;;36.60;25.58;;;;;;;;;;5032520;28;20295;-75
2021/09/22 09:39:02;;;;;;;36.20;25.95;;;;;;;;;;5021609;28;20190;-72
2021/09/22 09:41:48;;;;;;;35.80;27.65;;;;;;;;;;5028971;28;20181;-73
2021/09/22 09:44:17;;;;;;;36.60;27.42;;;;;;;;;;5022671;28;20193;-73
2021/09/22 09:46:44;;;;;;;37.20;27.05;;;;;;;;;;5027230;28;20186;-73
2021/09/22 09:49:12;;;;;;;39.22;26.45;;;;;;;;;;5019404;28;20185;-72
2021/09/22 09:51:43;;;;;;;37.58;26.50;;;;;;;;;;5028513;28;20199;-72
2021/09/22 09:54:24;;;;;;;33.88;25.13;;;;;;;;;;5016723;28;20182;-72
2021/09/22 09:56:51;;;;;;;32.13;24.27;;;;;;;;;;5028965;28;20316;-73
2021/09/22 09:59:18;;;;;;;30.48;23.77;;;;;;;;;;5019498;28;20205;-73
2021/09/22 10:01:49;;;;;;;29.55;21.98;;;;;;;;;;5027528;28;20280;-74
2021/09/22 10:04:17;;;;;;;32.17;23.92;;;;;;;;;;5018274;28;20241;-73
2021/09/22 10:06:44;;;;;;;33.63;23.20;;;;;;;;;;5029153;28;20517;-72
2021/09/22 10:09:10;;;;;;;30.38;21.75;;;;;;;;;;5021219;28;20181;-72
2021/09/22 10:11:38;;;;;;;26.98;21.13;;;;;;;;;;5021541;28;20189;-73
2021/09/22 10:14:05;;;;;;;28.58;20.65;;;;;;;;;;5025278;28;20180;-74
2021/09/22 10:16:33;;;;;;;27.60;21.55;;;;;;;;;;5015999;28;20236;-74
2021/09/22 10:18:59;;;;;;;30.08;21.95;;;;;;;;;;5026236;28;20174;-73
2021/09/22 10:21:25;;;;;;;28.75;20.52;;;;;;;;;;5016149;28;20336;-73
2021/09/22 10:23:53;;;;;;;27.35;20.50;;;;;;;;;;5027574;28;20221;-73
2021/09/22 10:26:19;;;;;;;39.50;21.75;;;;;;;;;;5016380;28;20178;-73
2021/09/22 10:28:46;;;;;;;28.90;20.13;;;;;;;;;;5026295;28;20531;-73
2021/09/22 10:31:33;;;;;;;30.67;21.75;;;;;;;;;;5017298;28;20209;-73
2021/09/22 10:33:59;;;;;;;27.65;20.70;;;;;;;;;;5028506;28;20277;-72
2021/09/22 10:36:42;;;;;;;25.15;19.35;;;;;;;;;;5016948;28;20566;-73
2021/09/22 10:39:10;;;;;;;24.95;18.27;;;;;;;;;;5027291;28;20243;-73
2021/09/22 10:41:42;;;;;;;30.05;20.25;;;;;;;;;;5019601;28;20558;-73
2021/09/22 10:44:23;;;;;;;25.30;18.38;;;;;;;;;;5027937;28;20198;-73
2021/09/22 10:46:49;;;;;;;24.63;16.98;;;;;;;;;;5019528;28;20597;-73
2021/09/22 10:49:14;;;;;;;25.08;16.92;;;;;;;;;;5025008;28;20185;-74
2021/09/22 10:51:45;;;;;;;22.23;16.55;;;;;;;;;;5020278;28;20260;-74
2021/09/22 10:54:23;;;;;;;22.85;16.92;;;;;;;;;;5024096;28;20182;-73
2021/09/22 10:56:57;;;;;;;22.95;15.55;;;;;;;;;;5020490;28;20201;-73
2021/09/22 10:59:32;;;;;;;23.05;15.73;;;;;;;;;;5025670;28;20174;-74
2021/09/22 11:01:59;;;;;;;21.75;14.73;;;;;;;;;;5021681;28;20201;-72
2021/09/22 11:04:25;;;;;;;25.67;17.15;;;;;;;;;;5027206;28;20229;-72
2021/09/22 11:06:54;;;;;;;24.00;15.20;;;;;;;;;;5030455;28;20268;-72
2021/09/22 11:09:25;;;;;;;26.05;16.00;;;;;;;;;;5023082;28;20191;-72
2021/09/22 11:11:59;;;;;;;22.33;14.57;;;;;;;;;;5029079;28;20205;-72
2021/09/22 11:14:30;;;;;;;19.33;14.73;;;;;;;;;;5020960;28;20328;-72
2021/09/22 11:17:02;;;;;;;19.90;13.77;;;;;;;;;;5030772;28;20217;-72
2021/09/22 11:19:29;;;;;;;17.95;12.85;;;;;;;;;;5022181;28;20309;-72
2021/09/22 11:21:55;;;;;;;18.60;13.00;;;;;;;;;;5031663;28;20190;-71
2021/09/22 11:24:23;;;;;;;18.42;13.48;;;;;;;;;;5023218;28;20526;-72
2021/09/22 11:26:57;;;;;;;20.90;13.65;;;;;;;;;;5029637;28;20558;-73
2021/09/22 11:29:33;;;;;;;21.17;12.98;;;;;;;;;;5020854;28;20633;-73
2021/09/22 11:32:01;;;;;;;20.10;14.15;;;;;;;;;;5028105;28;20665;-71
2021/09/22 11:34:28;;;;;;;17.60;12.40;;;;;;;;;;5022983;28;20210;-71
2021/09/22 11:37:03;;;;;;;21.83;13.52;;;;;;;;;;5029753;28;20567;-72
2021/09/22 11:39:29;;;;;;;22.75;14.20;;;;;;;;;;5021161;28;20192;-70
2021/09/22 11:41:55;;;;;;;38.42;17.25;;;;;;;;;;5028083;28;20186;-70
2021/09/22 11:44:25;;;;;;;16.75;12.63;;;;;;;;;;5020557;28;22966;-70
2021/09/22 11:46:57;;;;;;;23.85;14.27;;;;;;;;;;5028034;28;20224;-70
2021/09/22 11:49:40;;;;;;;20.92;13.15;;;;;;;;;;5025475;28;20274;-71
2021/09/22 11:52:12;;;;;;;20.52;13.70;;;;;;;;;;5026957;28;20186;-71
2021/09/22 11:54:42;;;;;;;18.73;10.93;;;;;;;;;;5028979;28;20304;-72
2021/09/22 11:57:11;;;;;;;13.70;9.88;;;;;;;;;;5025024;28;20620;-71
2021/09/22 11:59:37;;;;;;;14.20;9.70;;;;;;;;;;5026750;28;20209;-72
2021/09/22 12:02:03;;;;;;;11.63;8.82;;;;;;;;;;5022078;28;20182;-72
2021/09/22 12:04:31;;;;;;;15.82;9.90;;;;;;;;;;5022795;28;20226;-71
2021/09/22 12:06:56;;;;;;;15.85;9.57;;;;;;;;;;5021465;28;20664;-71
2021/09/22 12:09:22;;;;;;;15.35;9.00;;;;;;;;;;5025544;28;20202;-71
2021/09/22 12:12:04;;;;;;;13.23;8.73;;;;;;;;;;5022245;28;20218;-71
2021/09/22 12:14:29;;;;;;;15.13;9.63;;;;;;;;;;5028579;28;20671;-71
2021/09/22 12:17:12;;;;;;;14.90;9.05;;;;;;;;;;5021943;28;20217;-71
2021/09/22 12:19:39;;;;;;;13.63;9.15;;;;;;;;;;5025841;28;20579;-71
2021/09/22 12:22:06;;;;;;;12.35;7.45;;;;;;;;;;5019466;28;20194;-71
2021/09/22 12:24:33;;;;;;;14.55;8.65;;;;;;;;;;5028688;28;20198;-72
2021/09/22 12:27:00;;;;;;;16.83;8.98;;;;;;;;;;5020244;28;20193;-73
2021/09/22 12:29:25;;;;;;;11.18;9.25;;;;;;;;;;5028817;28;20189;-72
2021/09/22 12:31:54;;;;;;;14.73;8.98;;;;;;;;;;5021438;28;20193;-73
2021/09/22 12:34:25;;;;;;;12.98;8.75;;;;;;;;;;5027017;28;20186;-72
2021/09/22 12:36:52;;;;;;;12.85;8.35;;;;;;;;;;5028089;28;20653;-73
2021/09/22 12:39:20;;;;;;;13.95;8.52;;;;;;;;;;5019641;28;20552;-72
2021/09/22 12:42:04;;;;;;;13.43;8.20;;;;;;;;;;5026163;28;20786;-73
2021/09/22 12:44:30;;;;;;;15.77;8.68;;;;;;;;;;5018361;28;20189;-72
2021/09/22 12:46:55;;;;;;;13.57;8.85;;;;;;;;;;5022632;28;20185;-72
2021/09/22 12:49:24;;;;;;;15.93;7.90;;;;;;;;;;5018946;28;20236;-74
2021/09/22 12:51:54;;;;;;;19.10;9.52;;;;;;;;;;5023813;28;20269;-73
2021/09/22 12:54:21;;;;;;;16.35;9.32;;;;;;;;;;5020339;28;20637;-72
2021/09/22 12:56:47;;;;;;;17.77;8.13;;;;;;;;;;5026068;28;20206;-71
2021/09/22 12:59:31;;;;;;;16.23;9.23;;;;;;;;;;5019048;28;20256;-72
2021/09/22 13:01:58;;;;;;;16.83;9.00;;;;;;;;;;5024380;28;20217;-74
2021/09/22 13:04:25;;;;;;;13.30;9.00;;;;;;;;;;5015887;28;20336;-73
2021/09/22 13:06:55;;;;;;;13.07;8.25;;;;;;;;;;5028264;28;20248;-73
2021/09/22 13:09:31;;;;;;;14.27;9.45;;;;;;;;;;5019451;28;20569;-72
2021/09/22 13:11:57;;;;;;;13.18;8.23;;;;;;;;;;5028534;28;20315;-73
2021/09/22 13:14:23;;;;;;;13.85;8.10;;;;;;;;;;5020758;28;28227;-72
2021/09/22 13:16:55;;;;;;;12.43;8.50;;;;;;;;;;5029238;28;20221;-72
2021/09/22 13:19:22;;;;;;;12.95;7.30;;;;;;;;;;5025181;28;20201;-73
2021/09/22 13:21:49;;;;;;;17.27;8.65;;;;;;;;;;5020905;28;20193;-72
2021/09/22 13:24:20;;;;;;;12.20;7.68;;;;;;;;;;5028343;28;20186;-73
2021/09/22 13:26:48;;;;;;;12.60;7.50;;;;;;;;;;5020765;28;20236;-73
2021/09/22 13:29:15;;;;;;;12.57;7.90;;;;;;;;;;5027955;28;20181;-73
2021/09/22 13:31:53;;;;;;;13.73;7.90;;;;;;;;;;5023205;28;20194;-73
2021/09/22 13:34:21;;;;;;;12.13;7.68;;;;;;;;;;5027218;28;20244;-73
2021/09/22 13:36:47;;;;;;;14.38;8.52;;;;;;;;;;5019028;28;20325;-72
2021/09/22 13:39:14;;;;;;;17.08;9.60;;;;;;;;;;5027594;28;20670;-72
2021/09/22 13:41:40;;;;;;;13.27;8.50;;;;;;;;;;5019957;28;20212;-72
2021/09/22 13:44:07;;;;;;;12.45;8.40;;;;;;;;;;5027568;28;20268;-72
2021/09/22 13:46:35;;;;;;;17.90;9.05;;;;;;;;;;5019607;28;20210;-73
2021/09/22 13:49:01;;;;;;;14.43;8.45;;;;;;;;;;5028255;28;20415;-72
2021/09/22 13:51:26;;;;;;;15.02;9.75;;;;;;;;;;5019398;28;20846;-73
2021/09/22 13:53:52;;;;;;;12.13;7.45;;;;;;;;;;5029204;28;20657;-72
2021/09/22 13:56:18;;;;;;;9.60;7.82;;;;;;;;;;5029416;28;20209;-72
2021/09/22 13:58:44;;;;;;;13.65;8.63;;;;;;;;;;5019776;28;20665;-73
2021/09/22 14:01:09;;;;;;;15.10;7.90;;;;;;;;;;5020847;28;20204;-72
2021/09/22 14:03:35;;;;;;;10.98;7.60;;;;;;;;;;5016843;28;20913;-71
2021/09/22 14:06:02;;;;;;;11.95;7.53;;;;;;;;;;5026235;28;20190;-71
2021/09/22 14:08:28;;;;;;;12.23;8.27;;;;;;;;;;5016065;28;20317;-72
2021/09/22 14:10:54;;;;;;;14.02;8.32;;;;;;;;;;5024271;28;20201;-73
2021/09/22 14:13:20;;;;;;;10.93;8.18;;;;;;;;;;5015262;28;20561;-73
2021/09/22 14:15:47;;;;;;;9.57;6.50;;;;;;;;;;5026440;28;20202;-71
2021/09/22 14:18:15;;;;;;;13.43;7.20;;;;;;;;;;5017939;28;20619;-72